.
WxDataArchive / Data Records for 2014-03-04
2014-03-03 March 2014 2014-03-05

Data Records for Tuesday, 04 March 2014

Time	Temp	Chill	HIndex	Humid	Dewpt	 Wind 	HiWind	WindDir	Rain 	Barom
-----	----	-----	------	-----	-----	------	------	-------	-----	-----
00:00	1.5	1.5	1.5	71	-5.7	0	0	---	0.00	30.454 
00:05	1.5	1.5	1.5	70	-6.0	0	0	---	0.00	30.454 
00:10	1.5	1.5	1.5	70	-6.0	0	0	---	0.00	30.454 
00:15	1.3	1.3	1.3	71	-5.9	0	0	---	0.00	30.451 
00:20	1.5	1.5	1.5	71	-5.7	0	0	---	0.00	30.451 
00:25	1.7	1.7	1.7	71	-5.5	0	0	---	0.00	30.451 
00:30	1.7	1.7	1.7	71	-5.5	0	0	---	0.00	30.443 
00:35	1.7	1.7	1.7	71	-5.5	0	0	---	0.00	30.443 
00:40	1.7	1.7	1.7	71	-5.5	0	0	---	0.00	30.443 
00:45	1.7	1.7	1.7	71	-5.5	0	0	---	0.00	30.450 
00:50	1.8	1.8	1.8	71	-5.4	0	0	---	0.00	30.450 
00:55	2.0	2.0	2.0	71	-5.2	0	0	---	0.00	30.450 
01:00	2.2	2.2	2.2	71	-5.0	0	0	---	0.00	30.452 
01:05	2.4	2.4	2.4	71	-4.8	0	0	---	0.00	30.452 
01:10	2.6	2.6	2.6	71	-4.6	0	0	---	0.00	30.452 
01:15	2.8	2.8	2.8	71	-4.4	0	0	---	0.00	30.447 
01:20	3.0	3.0	3.0	70	-4.5	0	0	---	0.00	30.447 
01:25	3.4	3.4	3.4	70	-4.1	0	0	---	0.00	30.447 
01:30	3.7	3.7	3.7	69	-4.2	0	0	---	0.00	30.449 
01:35	4.1	4.1	4.1	69	-3.8	0	1	90	0.00	30.449 
01:40	4.3	4.3	4.3	68	-3.9	0	0	---	0.00	30.449 
01:45	4.7	4.7	4.7	68	-3.5	0	0	---	0.00	30.439 
01:50	4.8	4.8	4.8	67	-3.7	0	0	---	0.00	30.439 
01:55	5.2	5.2	5.2	65	-4.0	0	0	---	0.00	30.439 
02:00	5.4	5.4	5.4	64	-4.1	0	0	---	0.00	30.434 
02:05	5.8	5.8	5.8	64	-3.7	0	0	---	0.00	30.434 
02:10	6.0	6.0	6.0	63	-3.8	0	0	---	0.00	30.434 
02:15	6.1	6.1	6.1	62	-4.1	0	0	---	0.00	30.430 
02:20	6.3	6.3	6.3	62	-3.9	0	0	---	0.00	30.430 
02:25	6.5	6.5	6.5	62	-3.7	0	0	---	0.00	30.430 
02:30	6.5	6.5	6.5	61	-4.0	0	0	---	0.00	30.416 
02:35	6.7	6.7	6.7	61	-3.9	0	0	---	0.00	30.416 
02:40	6.9	6.9	6.9	62	-3.3	0	1	90	0.00	30.416 
02:45	6.9	6.9	6.9	62	-3.3	0	1	90	0.00	30.403 
02:50	6.9	6.9	6.9	62	-3.3	0	1	90	0.00	30.403 
02:55	6.7	6.7	6.7	62	-3.5	0	1	90	0.00	30.403 
03:00	6.7	6.7	6.7	61	-3.9	0	2	90	0.00	30.399 
03:05	6.5	6.5	6.5	61	-4.0	0	1	90	0.00	30.399 
03:10	6.5	6.5	6.5	61	-4.0	0	1	90	0.00	30.399 
03:15	6.3	6.3	6.3	62	-3.9	0	1	90	0.00	30.386 
03:20	6.3	6.3	6.3	62	-3.9	0	1	90	0.00	30.386 
03:25	6.1	6.1	6.1	63	-3.8	0	2	90	0.00	30.386 
03:30	6.1	6.1	6.1	63	-3.8	0	1	90	0.00	30.385 
03:35	6.1	6.1	6.1	63	-3.8	0	2	90	0.00	30.385 
03:40	6.1	6.1	6.1	63	-3.8	0	1	90	0.00	30.385 
03:45	6.1	6.1	6.1	63	-3.8	0	0	---	0.00	30.396 
03:50	6.1	6.1	6.1	63	-3.8	0	1	90	0.00	30.396 
03:55	6.1	6.1	6.1	63	-3.8	0	0	---	0.00	30.396 
04:00	6.1	6.1	6.1	62	-4.1	0	2	90	0.00	30.388 
04:05	6.0	6.0	6.0	62	-4.2	0	1	90	0.00	30.388 
04:10	6.0	6.0	6.0	62	-4.2	0	0	---	0.00	30.388 
04:15	6.0	6.0	6.0	62	-4.2	0	0	---	0.00	30.389 
04:20	5.8	5.8	5.8	62	-4.4	0	0	---	0.00	30.389 
04:25	5.8	5.8	5.8	62	-4.4	0	0	---	0.00	30.389 
04:30	5.6	5.6	5.6	62	-4.6	0	0	---	0.00	30.396 
04:35	5.4	5.4	5.4	62	-4.8	0	1	90	0.00	30.396 
04:40	5.2	5.2	5.2	62	-4.9	0	0	---	0.00	30.396 
04:45	5.0	5.0	5.0	62	-5.1	0	0	---	0.00	30.394 
04:50	4.8	4.8	4.8	62	-5.3	0	0	---	0.00	30.394 
04:55	4.5	4.5	4.5	63	-5.3	0	0	---	0.00	30.394 
05:00	4.3	4.3	4.3	63	-5.5	0	0	---	0.00	30.407 
05:05	4.3	4.3	4.3	64	-5.1	0	0	---	0.00	30.407 
05:10	4.1	4.1	4.1	64	-5.3	0	0	---	0.00	30.407 
05:15	4.3	4.3	4.3	65	-4.8	0	0	---	0.00	30.419 
05:20	4.3	4.3	4.3	65	-4.8	0	0	---	0.00	30.419 
05:25	4.3	4.3	4.3	65	-4.8	0	0	---	0.00	30.419 
05:30	4.3	4.3	4.3	65	-4.8	0	0	---	0.00	30.410 
05:35	4.3	4.3	4.3	66	-4.5	0	0	---	0.00	30.410 
05:40	4.5	4.5	4.5	66	-4.3	0	0	---	0.00	30.410 
05:45	4.5	4.5	4.5	66	-4.3	0	0	---	0.00	30.409 
05:50	4.8	4.8	4.8	66	-4.0	0	0	---	0.00	30.409 
05:55	5.2	5.2	5.2	66	-3.6	0	0	---	0.00	30.409 
06:00	5.4	5.4	5.4	66	-3.5	0	0	---	0.00	30.407 
06:05	5.6	5.6	5.6	66	-3.3	0	0	---	0.00	30.407 
06:10	5.8	5.8	5.8	66	-3.1	0	0	---	0.00	30.407 
06:15	5.8	5.8	5.8	65	-3.4	0	0	---	0.00	30.406 
06:20	6.0	6.0	6.0	65	-3.2	0	0	---	0.00	30.406 
06:25	6.0	6.0	6.0	65	-3.2	0	0	---	0.00	30.406 
06:30	6.0	6.0	6.0	65	-3.2	0	0	---	0.00	30.409 
06:35	6.0	6.0	6.0	65	-3.2	0	0	---	0.00	30.409 
06:40	6.0	6.0	6.0	65	-3.2	0	0	---	0.00	30.409 
06:45	6.0	6.0	6.0	65	-3.2	0	0	---	0.00	30.408 
06:50	6.0	6.0	6.0	66	-2.9	0	1	90	0.00	30.408 
06:55	6.1	6.1	6.1	66	-2.8	0	1	90	0.00	30.408 
07:00	6.1	6.1	6.1	66	-2.8	0	2	90	0.00	30.394 
07:05	6.3	6.3	6.3	66	-2.6	0	1	90	0.00	30.394 
07:10	6.5	6.5	6.5	66	-2.4	0	1	90	0.00	30.394 
07:15	6.5	6.5	6.5	65	-2.7	0	1	90	0.00	30.397 
07:20	6.5	6.5	6.5	66	-2.4	0	1	90	0.00	30.397 
07:25	6.7	6.7	6.7	65	-2.5	0	1	90	0.00	30.397 
07:30	6.7	6.7	6.7	66	-2.2	0	1	90	0.00	30.393 
07:35	6.9	6.9	6.9	65	-2.3	0	1	90	0.00	30.393 
07:40	7.0	7.0	7.0	65	-2.2	0	2	90	0.00	30.393 
07:45	7.0	7.0	7.0	65	-2.2	0	1	90	0.00	30.395 
07:50	7.2	7.2	7.2	65	-2.1	0	2	90	0.00	30.395 
07:55	7.2	7.2	7.2	65	-2.1	0	3	90	0.00	30.395 
08:00	7.4	7.4	7.4	65	-1.9	0	2	90	0.00	30.380 
08:05	7.6	7.6	7.6	65	-1.7	0	2	90	0.00	30.380 
08:10	7.7	7.7	7.7	65	-1.6	0	2	90	0.00	30.380 
08:15	7.7	7.7	7.7	65	-1.6	1	2	90	0.00	30.363 
08:20	7.9	7.9	7.9	65	-1.4	1	3	90	0.00	30.363 
08:25	8.1	8.1	8.1	65	-1.2	1	4	112	0.00	30.363 
08:30	8.3	8.3	8.3	65	-1.0	0	2	135	0.00	30.373 
08:35	8.3	8.3	8.3	65	-1.0	1	3	68	0.00	30.373 
08:40	8.4	8.4	8.4	65	-0.9	1	4	90	0.00	30.373 
08:45	8.6	8.6	8.6	64	-1.0	0	2	90	0.00	30.365 
08:50	9.0	9.0	9.0	64	-0.7	0	1	90	0.00	30.365 
08:55	9.3	9.3	9.3	64	-0.4	0	2	90	0.00	30.365 
09:00	9.7	9.7	9.7	63	-0.3	0	1	90	0.00	30.376 
09:05	10.0	10.0	10.0	63	-0.0	0	2	90	0.00	30.376 
09:10	10.4	10.4	10.4	62	-0.0	0	2	90	0.00	30.376 
09:15	10.5	10.5	10.5	61	-0.3	0	2	90	0.00	30.390 
09:20	11.1	11.1	11.1	61	0.3	0	1	90	0.00	30.390 
09:25	11.9	11.9	11.9	59	0.4	0	2	90	0.00	30.390 
09:30	12.6	12.6	12.6	57	0.3	0	3	90	0.00	30.382 
09:35	13.3	13.3	13.3	56	0.6	0	1	90	0.00	30.382 
09:40	13.6	13.6	13.6	55	0.5	0	2	90	0.00	30.382 
09:45	13.8	13.8	13.8	54	0.3	1	2	90	0.00	30.360 
09:50	13.8	13.8	13.8	54	0.3	0	2	90	0.00	30.360 
09:55	14.1	14.1	14.1	55	0.9	0	2	90	0.00	30.360 
10:00	14.6	14.6	14.6	54	1.0	0	2	90	0.00	30.366 
10:05	15.2	15.2	15.2	54	1.6	0	1	90	0.00	30.366 
10:10	15.4	15.4	15.4	53	1.4	1	3	90	0.00	30.366 
10:15	15.6	15.6	15.6	54	2.0	0	1	90	0.00	30.351 
10:20	16.4	16.4	16.4	52	1.9	0	3	90	0.00	30.351 
10:25	16.5	16.5	16.5	51	1.6	1	4	270	0.00	30.351 
10:30	17.2	17.2	17.2	50	1.8	1	4	270	0.00	30.344 
10:35	17.3	17.3	17.3	50	1.9	1	4	90	0.00	30.344 
10:40	16.9	16.9	16.9	51	1.9	2	6	90	0.00	30.344 
10:45	17.0	17.0	17.0	52	2.4	1	2	90	0.00	30.338 
10:50	17.0	17.0	17.0	53	2.9	1	4	90	0.00	30.338 
10:55	17.2	17.2	17.2	51	2.2	0	2	90	0.00	30.338 
11:00	17.8	17.8	17.8	53	3.6	0	2	90	0.00	30.325 
11:05	19.1	19.1	19.1	52	4.4	0	2	90	0.00	30.325 
11:10	19.4	19.4	19.4	49	3.4	1	3	90	0.00	30.325 
11:15	18.9	18.9	18.9	50	3.4	1	3	90	0.00	30.326 
11:20	18.9	18.9	18.9	51	3.8	0	3	90	0.00	30.326 
11:25	19.4	19.4	19.4	50	3.8	0	1	90	0.00	30.326 
11:30	19.7	19.7	19.7	49	3.7	1	4	90	0.00	30.319 
11:35	19.4	19.4	19.4	48	3.0	0	2	90	0.00	30.319 
11:40	19.7	19.7	19.7	49	3.7	0	2	90	0.00	30.319 
11:45	20.0	20.0	20.0	48	3.5	0	2	90	0.00	30.312 
11:50	20.3	20.3	20.3	50	4.7	0	2	90	0.00	30.312 
11:55	20.5	20.5	20.5	47	3.5	0	2	90	0.00	30.312 
12:00	20.3	20.3	20.3	47	3.3	1	5	90	0.00	30.317 
12:05	19.7	19.7	19.7	48	3.2	1	4	90	0.00	30.317 
12:10	19.7	19.7	19.7	48	3.2	0	2	90	0.00	30.317 
12:15	19.7	19.7	19.7	48	3.2	0	1	90	0.00	30.305 
12:20	20.0	20.0	20.0	48	3.5	0	1	90	0.00	30.305 
12:25	20.2	20.2	20.2	47	3.2	0	2	90	0.00	30.305 
12:30	20.2	20.2	20.2	48	3.7	0	2	90	0.00	30.309 
12:35	20.3	20.3	20.3	47	3.3	0	1	338	0.00	30.309 
12:40	20.5	20.5	20.5	47	3.5	0	1	338	0.00	30.309 
12:45	20.3	20.3	20.3	47	3.3	0	2	338	0.00	30.306 
12:50	20.5	20.5	20.5	47	3.5	0	1	338	0.00	30.306 
12:55	20.6	20.6	20.6	47	3.6	0	1	338	0.00	30.306 
13:00	20.6	20.6	20.6	47	3.6	1	3	338	0.00	30.296 
13:05	20.6	20.6	20.6	49	4.5	0	2	338	0.00	30.296 
13:10	21.1	21.1	21.1	49	5.0	0	1	338	0.00	30.296 
13:15	21.3	21.3	21.3	47	4.2	0	1	338	0.00	30.298 
13:20	21.3	21.3	21.3	47	4.2	1	2	22	0.00	30.298 
13:25	21.1	21.1	21.1	47	4.1	0	2	22	0.00	30.298 
13:30	21.1	21.1	21.1	48	4.5	0	2	292	0.00	30.296 
13:35	21.4	21.4	21.4	48	4.8	0	1	292	0.00	30.296 
13:40	21.4	21.4	21.4	47	4.3	1	3	292	0.00	30.296 
13:45	21.6	21.6	21.6	48	5.0	0	1	270	0.00	30.279 
13:50	22.2	22.2	22.2	46	4.6	0	1	270	0.00	30.279 
13:55	22.4	22.4	22.4	46	4.8	1	3	270	0.00	30.279 
14:00	22.5	22.5	22.5	47	5.3	0	2	270	0.00	30.263 
14:05	22.1	22.1	22.1	45	4.0	0	1	270	0.00	30.263 
14:10	22.1	22.1	22.1	47	5.0	0	2	270	0.00	30.263 
14:15	22.4	22.4	22.4	48	5.7	0	1	270	0.00	30.256 
14:20	22.9	22.9	22.9	46	5.2	1	2	270	0.00	30.256 
14:25	23.0	23.0	23.0	46	5.3	0	2	270	0.00	30.256 
14:30	23.2	23.2	23.2	44	4.6	0	2	270	0.00	30.247 
14:35	23.0	23.0	23.0	45	4.9	1	3	270	0.00	30.247 
14:40	22.9	22.9	22.9	46	5.2	0	2	270	0.00	30.247 
14:45	23.5	23.5	23.5	47	6.3	0	2	270	0.00	30.246 
14:50	24.1	24.1	24.1	46	6.3	0	1	270	0.00	30.246 
14:55	23.5	23.5	23.5	44	4.8	1	3	270	0.00	30.246 
15:00	23.2	23.2	23.2	45	5.0	0	2	270	0.00	30.247 
15:05	23.3	23.3	23.3	45	5.1	0	2	270	0.00	30.247 
15:10	23.3	23.3	23.3	45	5.1	0	2	270	0.00	30.247 
15:15	23.5	23.5	23.5	46	5.8	0	2	270	0.00	30.246 
15:20	23.9	23.9	23.9	45	5.7	1	3	270	0.00	30.246 
15:25	23.9	23.9	23.9	44	5.2	1	3	270	0.00	30.246 
15:30	23.8	23.8	23.8	44	5.1	1	3	270	0.00	30.245 
15:35	23.8	23.8	23.8	45	5.6	0	2	270	0.00	30.245 
15:40	23.8	23.8	23.8	46	6.1	1	2	270	0.00	30.245 
15:45	23.9	23.9	23.9	46	6.2	0	1	270	0.00	30.244 
15:50	24.4	24.4	24.4	45	6.1	0	2	270	0.00	30.244 
15:55	24.1	24.1	24.1	44	5.4	0	2	270	0.00	30.244 
16:00	23.9	23.9	23.9	44	5.2	0	3	270	0.00	30.243 
16:05	23.8	23.8	23.8	44	5.1	0	2	270	0.00	30.243 
16:10	23.8	23.8	23.8	45	5.6	1	2	270	0.00	30.243 
16:15	23.8	23.8	23.8	45	5.6	0	1	270	0.00	30.240 
16:20	23.9	23.9	23.9	44	5.2	0	2	270	0.00	30.240 
16:25	23.9	23.9	23.9	45	5.7	0	2	270	0.00	30.240 
16:30	24.1	24.1	24.1	46	6.3	0	2	270	0.00	30.244 
16:35	23.8	23.8	23.8	44	5.1	1	2	270	0.00	30.244 
16:40	23.9	23.9	23.9	46	6.2	0	1	270	0.00	30.244 
16:45	24.1	24.1	24.1	46	6.3	0	2	270	0.00	30.233 
16:50	24.2	24.2	24.2	46	6.4	0	1	270	0.00	30.233 
16:55	24.1	24.1	24.1	46	6.3	0	1	270	0.00	30.233 
17:00	24.1	24.1	24.1	47	6.8	0	1	270	0.00	30.231 
17:05	23.9	23.9	23.9	47	6.6	0	1	270	0.00	30.231 
17:10	23.8	23.8	23.8	46	6.1	0	1	270	0.00	30.231 
17:15	23.8	23.8	23.8	46	6.1	0	2	270	0.00	30.233 
17:20	23.5	23.5	23.5	46	5.8	0	1	270	0.00	30.233 
17:25	23.3	23.3	23.3	46	5.6	0	2	270	0.00	30.233 
17:30	23.2	23.2	23.2	46	5.5	0	2	270	0.00	30.235 
17:35	22.9	22.9	22.9	47	5.7	0	2	270	0.00	30.235 
17:40	22.7	22.7	22.7	47	5.5	0	1	270	0.00	30.235 
17:45	22.5	22.5	22.5	47	5.3	0	1	270	0.00	30.233 
17:50	22.4	22.4	22.4	46	4.8	0	1	270	0.00	30.233 
17:55	22.2	22.2	22.2	47	5.1	0	1	270	0.00	30.233 
18:00	22.1	22.1	22.1	46	4.5	0	1	270	0.00	30.242 
18:05	22.1	22.1	22.1	46	4.5	0	0	---	0.00	30.242 
18:10	21.9	21.9	21.9	48	5.3	0	0	---	0.00	30.242 
18:15	21.9	21.9	21.9	48	5.3	0	0	---	0.00	30.246 
18:20	21.8	21.8	21.8	48	5.2	0	0	---	0.00	30.246 
18:25	21.8	21.8	21.8	49	5.6	0	0	---	0.00	30.246 
18:30	21.8	21.8	21.8	51	6.5	0	0	---	0.00	30.250 
18:35	21.8	21.8	21.8	52	6.9	0	0	---	0.00	30.250 
18:40	21.8	21.8	21.8	52	6.9	0	1	270	0.00	30.250 
18:45	21.8	21.8	21.8	52	6.9	0	0	---	0.00	30.249 
18:50	21.8	21.8	21.8	52	6.9	0	0	---	0.00	30.249 
18:55	21.6	21.6	21.6	51	6.3	0	0	---	0.00	30.249 
19:00	21.6	21.6	21.6	51	6.3	0	0	---	0.00	30.249 
19:05	21.4	21.4	21.4	51	6.1	0	0	---	0.00	30.249 
19:10	21.3	21.3	21.3	52	6.4	0	0	---	0.00	30.249 
19:15	21.3	21.3	21.3	53	6.9	0	0	---	0.00	30.250 
19:20	21.0	21.0	21.0	52	6.2	0	0	---	0.00	30.250 
19:25	20.6	20.6	20.6	52	5.8	0	0	---	0.00	30.250 
19:30	20.3	20.3	20.3	53	5.9	0	0	---	0.00	30.256 
19:35	20.0	20.0	20.0	53	5.7	0	0	---	0.00	30.256 
19:40	19.7	19.7	19.7	54	5.8	0	0	---	0.00	30.256 
19:45	19.5	19.5	19.5	54	5.6	0	0	---	0.00	30.264 
19:50	19.5	19.5	19.5	55	6.0	0	0	---	0.00	30.264 
19:55	19.7	19.7	19.7	55	6.2	0	0	---	0.00	30.264 
20:00	19.7	19.7	19.7	56	6.6	0	0	---	0.00	30.264 
20:05	19.7	19.7	19.7	56	6.6	0	0	---	0.00	30.264 
20:10	19.5	19.5	19.5	55	6.0	0	0	---	0.00	30.264 
20:15	19.2	19.2	19.2	55	5.7	0	0	---	0.00	30.265 
20:20	18.9	18.9	18.9	56	5.8	0	0	---	0.00	30.265 
20:25	18.6	18.6	18.6	57	5.9	0	0	---	0.00	30.265 
20:30	18.1	18.1	18.1	57	5.5	0	0	---	0.00	30.264 
20:35	17.8	17.8	17.8	58	5.6	0	0	---	0.00	30.264 
20:40	17.5	17.5	17.5	58	5.3	0	0	---	0.00	30.264 
20:45	17.2	17.2	17.2	58	5.0	0	0	---	0.00	30.270 
20:50	16.9	16.9	16.9	59	5.1	0	0	---	0.00	30.270 
20:55	16.5	16.5	16.5	61	5.4	0	0	---	0.00	30.270 
21:00	16.2	16.2	16.2	62	5.5	0	0	---	0.00	30.270 
21:05	16.1	16.1	16.1	63	5.8	0	0	---	0.00	30.270 
21:10	15.7	15.7	15.7	63	5.4	0	0	---	0.00	30.270 
21:15	15.4	15.4	15.4	63	5.1	0	0	---	0.00	30.265 
21:20	15.2	15.2	15.2	65	5.6	0	0	---	0.00	30.265 
21:25	14.9	14.9	14.9	65	5.3	0	0	---	0.00	30.265 
21:30	14.8	14.8	14.8	65	5.2	0	0	---	0.00	30.261 
21:35	14.4	14.4	14.4	65	4.8	0	0	---	0.00	30.261 
21:40	14.1	14.1	14.1	65	4.5	0	0	---	0.00	30.261 
21:45	13.8	13.8	13.8	66	4.6	0	0	---	0.00	30.266 
21:50	13.6	13.6	13.6	67	4.7	0	0	---	0.00	30.266 
21:55	13.3	13.3	13.3	67	4.4	0	0	---	0.00	30.266 
22:00	12.9	12.9	12.9	68	4.4	0	0	---	0.00	30.263 
22:05	12.8	12.8	12.8	69	4.6	0	0	---	0.00	30.263 
22:10	12.4	12.4	12.4	69	4.2	0	0	---	0.00	30.263 
22:15	12.3	12.3	12.3	69	4.1	0	0	---	0.00	30.266 
22:20	12.1	12.1	12.1	70	4.2	0	0	---	0.00	30.266 
22:25	11.9	11.9	11.9	70	4.0	0	0	---	0.00	30.266 
22:30	11.6	11.6	11.6	70	3.7	0	0	---	0.00	30.273 
22:35	11.4	11.4	11.4	70	3.5	0	0	---	0.00	30.273 
22:40	11.2	11.2	11.2	70	3.4	0	0	---	0.00	30.273 
22:45	11.1	11.1	11.1	71	3.6	0	0	---	0.00	30.278 
22:50	10.9	10.9	10.9	71	3.4	0	0	---	0.00	30.278 
22:55	10.9	10.9	10.9	72	3.7	0	0	---	0.00	30.278 
23:00	10.7	10.7	10.7	72	3.5	0	0	---	0.00	30.279 
23:05	10.7	10.7	10.7	72	3.5	0	0	---	0.00	30.279 
23:10	10.5	10.5	10.5	73	3.6	0	0	---	0.00	30.279 
23:15	10.4	10.4	10.4	73	3.5	0	0	---	0.00	30.278 
23:20	10.4	10.4	10.4	73	3.5	0	0	---	0.00	30.278 
23:25	10.2	10.2	10.2	73	3.3	0	0	---	0.00	30.278 
23:30	10.0	10.0	10.0	73	3.1	0	0	---	0.00	30.282 
23:35	9.9	9.9	9.9	73	3.0	0	0	---	0.00	30.282 
23:40	9.7	9.7	9.7	73	2.8	0	0	---	0.00	30.282 
23:45	9.5	9.5	9.5	73	2.6	0	0	---	0.00	30.287 
23:50	9.3	9.3	9.3	73	2.4	0	0	---	0.00	30.287 
23:55	9.2	9.2	9.2	74	2.6	0	0	---	0.00	30.287 

CoCoRaHS
IN-AL-39
A2 Web Hosting
Creative Commons License
GoDaddy
search engine by freefind advanced

loaded 2018-11-16 00:15:14 • last modified 2010-11-18 10:43:29
Privacy PolicyDisclaimer
• wx.awcolley.com is powered by PmWiki v.2002016 •
• all content (unless otherwise noted) © 2018 A W Colley